sensor_id;sensor_type;location;lat;lon;timestamp;P1;durP1;ratioP1;P2;durP2;ratioP2
483;SDS011;228;48.922;12.198;2022-12-29T00:00:00;18.23;;;11.03;;
483;SDS011;228;48.922;12.198;2022-12-29T00:02:27;17.37;;;10.70;;
483;SDS011;228;48.922;12.198;2022-12-29T00:04:53;14.23;;;9.57;;
483;SDS011;228;48.922;12.198;2022-12-29T00:07:19;12.97;;;8.77;;
483;SDS011;228;48.922;12.198;2022-12-29T00:09:44;12.27;;;7.97;;
483;SDS011;228;48.922;12.198;2022-12-29T00:12:10;13.37;;;8.23;;
483;SDS011;228;48.922;12.198;2022-12-29T00:14:36;12.13;;;8.67;;
483;SDS011;228;48.922;12.198;2022-12-29T00:17:21;13.40;;;7.70;;
483;SDS011;228;48.922;12.198;2022-12-29T00:19:47;14.33;;;8.37;;
483;SDS011;228;48.922;12.198;2022-12-29T00:22:33;12.40;;;8.67;;
483;SDS011;228;48.922;12.198;2022-12-29T00:25:17;12.37;;;7.77;;
483;SDS011;228;48.922;12.198;2022-12-29T00:28:02;11.70;;;8.00;;
483;SDS011;228;48.922;12.198;2022-12-29T00:30:46;10.17;;;6.97;;
483;SDS011;228;48.922;12.198;2022-12-29T00:33:31;12.37;;;7.80;;
483;SDS011;228;48.922;12.198;2022-12-29T00:36:27;11.73;;;7.50;;
483;SDS011;228;48.922;12.198;2022-12-29T00:39:15;10.67;;;7.40;;
483;SDS011;228;48.922;12.198;2022-12-29T00:42:05;9.83;;;7.27;;
483;SDS011;228;48.922;12.198;2022-12-29T00:44:51;12.07;;;7.60;;
483;SDS011;228;48.922;12.198;2022-12-29T00:47:17;12.00;;;7.60;;
483;SDS011;228;48.922;12.198;2022-12-29T00:49:43;9.50;;;7.13;;
483;SDS011;228;48.922;12.198;2022-12-29T00:52:10;10.97;;;7.43;;
483;SDS011;228;48.922;12.198;2022-12-29T00:54:38;11.03;;;6.80;;
483;SDS011;228;48.922;12.198;2022-12-29T00:57:07;11.57;;;7.00;;
483;SDS011;228;48.922;12.198;2022-12-29T00:59:35;10.53;;;6.70;;
483;SDS011;228;48.922;12.198;2022-12-29T01:02:03;10.17;;;6.97;;
483;SDS011;228;48.922;12.198;2022-12-29T01:04:29;8.87;;;6.77;;
483;SDS011;228;48.922;12.198;2022-12-29T01:06:55;9.70;;;6.53;;
483;SDS011;228;48.922;12.198;2022-12-29T01:09:22;9.53;;;7.00;;
483;SDS011;228;48.922;12.198;2022-12-29T01:12:07;10.30;;;7.07;;
483;SDS011;228;48.922;12.198;2022-12-29T01:14:34;11.73;;;7.13;;
483;SDS011;228;48.922;12.198;2022-12-29T01:17:02;11.23;;;6.53;;
483;SDS011;228;48.922;12.198;2022-12-29T01:19:29;10.70;;;6.87;;
483;SDS011;228;48.922;12.198;2022-12-29T01:21:55;11.73;;;6.60;;
483;SDS011;228;48.922;12.198;2022-12-29T01:24:21;11.77;;;6.37;;
483;SDS011;228;48.922;12.198;2022-12-29T01:26:48;9.60;;;6.60;;
483;SDS011;228;48.922;12.198;2022-12-29T01:29:16;12.77;;;7.17;;
483;SDS011;228;48.922;12.198;2022-12-29T01:31:44;12.47;;;7.10;;
483;SDS011;228;48.922;12.198;2022-12-29T01:34:11;10.50;;;6.43;;
483;SDS011;228;48.922;12.198;2022-12-29T01:36:37;9.97;;;6.50;;
483;SDS011;228;48.922;12.198;2022-12-29T01:39:03;9.63;;;7.10;;
483;SDS011;228;48.922;12.198;2022-12-29T01:41:29;8.47;;;5.73;;
483;SDS011;228;48.922;12.198;2022-12-29T01:43:56;12.20;;;7.17;;
483;SDS011;228;48.922;12.198;2022-12-29T01:46:40;9.40;;;6.70;;
483;SDS011;228;48.922;12.198;2022-12-29T01:49:12;8.60;;;6.83;;
483;SDS011;228;48.922;12.198;2022-12-29T01:51:45;12.00;;;7.00;;
483;SDS011;228;48.922;12.198;2022-12-29T01:54:17;8.50;;;6.20;;
483;SDS011;228;48.922;12.198;2022-12-29T01:56:59;8.27;;;6.20;;
483;SDS011;228;48.922;12.198;2022-12-29T01:59:30;12.00;;;6.93;;
483;SDS011;228;48.922;12.198;2022-12-29T02:02:04;10.33;;;6.57;;
483;SDS011;228;48.922;12.198;2022-12-29T02:04:31;9.10;;;6.90;;
483;SDS011;228;48.922;12.198;2022-12-29T02:07:03;10.97;;;7.40;;
483;SDS011;228;48.922;12.198;2022-12-29T02:09:34;9.87;;;6.23;;
483;SDS011;228;48.922;12.198;2022-12-29T02:12:00;9.80;;;6.50;;
483;SDS011;228;48.922;12.198;2022-12-29T02:14:27;11.17;;;7.37;;
483;SDS011;228;48.922;12.198;2022-12-29T02:17:15;9.37;;;6.17;;
483;SDS011;228;48.922;12.198;2022-12-29T02:20:37;10.40;;;7.07;;
483;SDS011;228;48.922;12.198;2022-12-29T02:26:19;10.43;;;6.27;;
483;SDS011;228;48.922;12.198;2022-12-29T02:36:01;9.07;;;6.20;;
483;SDS011;228;48.922;12.198;2022-12-29T02:41:13;10.53;;;6.60;;
483;SDS011;228;48.922;12.198;2022-12-29T02:47:05;9.03;;;6.23;;
483;SDS011;228;48.922;12.198;2022-12-29T02:50:05;8.83;;;5.80;;
483;SDS011;228;48.922;12.198;2022-12-29T02:52:54;9.43;;;5.90;;
483;SDS011;228;48.922;12.198;2022-12-29T02:55:24;9.80;;;6.20;;
483;SDS011;228;48.922;12.198;2022-12-29T03:01:01;7.47;;;5.73;;
483;SDS011;228;48.922;12.198;2022-12-29T03:06:50;7.67;;;5.30;;
483;SDS011;228;48.922;12.198;2022-12-29T03:09:31;8.80;;;6.37;;
483;SDS011;228;48.922;12.198;2022-12-29T03:15:28;7.67;;;5.80;;
483;SDS011;228;48.922;12.198;2022-12-29T03:18:31;8.60;;;5.33;;
483;SDS011;228;48.922;12.198;2022-12-29T03:21:22;10.10;;;6.03;;
483;SDS011;228;48.922;12.198;2022-12-29T03:24:29;8.17;;;6.20;;
483;SDS011;228;48.922;12.198;2022-12-29T03:27:00;9.77;;;6.37;;
483;SDS011;228;48.922;12.198;2022-12-29T03:29:36;10.80;;;6.57;;
483;SDS011;228;48.922;12.198;2022-12-29T03:32:10;10.23;;;5.77;;
483;SDS011;228;48.922;12.198;2022-12-29T03:34:40;8.03;;;5.50;;
483;SDS011;228;48.922;12.198;2022-12-29T03:37:09;6.80;;;5.27;;
483;SDS011;228;48.922;12.198;2022-12-29T03:39:39;9.87;;;6.10;;
483;SDS011;228;48.922;12.198;2022-12-29T03:42:09;8.83;;;6.00;;
483;SDS011;228;48.922;12.198;2022-12-29T03:44:43;10.37;;;6.10;;
483;SDS011;228;48.922;12.198;2022-12-29T03:47:13;8.53;;;6.27;;
483;SDS011;228;48.922;12.198;2022-12-29T03:49:41;10.93;;;7.03;;
483;SDS011;228;48.922;12.198;2022-12-29T03:52:07;9.83;;;5.77;;
483;SDS011;228;48.922;12.198;2022-12-29T03:54:39;9.87;;;6.57;;
483;SDS011;228;48.922;12.198;2022-12-29T03:57:06;10.10;;;6.03;;
483;SDS011;228;48.922;12.198;2022-12-29T03:59:43;9.33;;;6.10;;
483;SDS011;228;48.922;12.198;2022-12-29T04:02:10;13.23;;;7.27;;
483;SDS011;228;48.922;12.198;2022-12-29T04:04:36;8.40;;;5.70;;
483;SDS011;228;48.922;12.198;2022-12-29T04:07:02;8.47;;;5.40;;
483;SDS011;228;48.922;12.198;2022-12-29T04:09:29;8.87;;;5.83;;
483;SDS011;228;48.922;12.198;2022-12-29T04:11:57;8.53;;;5.97;;
483;SDS011;228;48.922;12.198;2022-12-29T04:14:23;8.30;;;5.70;;
483;SDS011;228;48.922;12.198;2022-12-29T04:16:49;6.53;;;5.23;;
483;SDS011;228;48.922;12.198;2022-12-29T04:19:15;8.40;;;5.17;;
483;SDS011;228;48.922;12.198;2022-12-29T04:21:42;7.20;;;5.17;;
483;SDS011;228;48.922;12.198;2022-12-29T04:24:08;5.83;;;4.77;;
483;SDS011;228;48.922;12.198;2022-12-29T04:26:38;6.93;;;5.03;;
483;SDS011;228;48.922;12.198;2022-12-29T04:29:25;7.00;;;5.63;;
483;SDS011;228;48.922;12.198;2022-12-29T04:32:07;8.57;;;6.13;;
483;SDS011;228;48.922;12.198;2022-12-29T04:34:37;10.97;;;6.60;;
483;SDS011;228;48.922;12.198;2022-12-29T04:37:03;7.70;;;5.93;;
483;SDS011;228;48.922;12.198;2022-12-29T04:39:29;9.70;;;6.27;;
483;SDS011;228;48.922;12.198;2022-12-29T04:41:55;12.30;;;6.67;;
483;SDS011;228;48.922;12.198;2022-12-29T04:44:22;9.90;;;6.23;;
483;SDS011;228;48.922;12.198;2022-12-29T04:46:54;11.00;;;6.23;;
483;SDS011;228;48.922;12.198;2022-12-29T04:49:49;8.77;;;6.20;;
483;SDS011;228;48.922;12.198;2022-12-29T04:52:34;9.43;;;5.50;;
483;SDS011;228;48.922;12.198;2022-12-29T04:55:01;9.60;;;6.47;;
483;SDS011;228;48.922;12.198;2022-12-29T04:57:28;8.97;;;6.07;;
483;SDS011;228;48.922;12.198;2022-12-29T04:59:57;7.30;;;5.57;;
483;SDS011;228;48.922;12.198;2022-12-29T05:02:24;8.10;;;6.30;;
483;SDS011;228;48.922;12.198;2022-12-29T05:04:50;7.53;;;5.27;;
483;SDS011;228;48.922;12.198;2022-12-29T05:07:17;7.83;;;5.63;;
483;SDS011;228;48.922;12.198;2022-12-29T05:09:44;10.30;;;6.03;;
483;SDS011;228;48.922;12.198;2022-12-29T05:12:10;7.77;;;5.73;;
483;SDS011;228;48.922;12.198;2022-12-29T05:14:43;7.03;;;6.23;;
483;SDS011;228;48.922;12.198;2022-12-29T05:17:09;8.70;;;5.83;;
483;SDS011;228;48.922;12.198;2022-12-29T05:19:35;9.53;;;5.90;;
483;SDS011;228;48.922;12.198;2022-12-29T05:22:01;8.60;;;5.87;;
483;SDS011;228;48.922;12.198;2022-12-29T05:24:28;9.80;;;6.10;;
483;SDS011;228;48.922;12.198;2022-12-29T05:26:56;8.00;;;5.83;;
483;SDS011;228;48.922;12.198;2022-12-29T05:29:40;10.10;;;5.73;;
483;SDS011;228;48.922;12.198;2022-12-29T05:32:08;6.83;;;5.37;;
483;SDS011;228;48.922;12.198;2022-12-29T05:34:34;7.53;;;5.60;;
483;SDS011;228;48.922;12.198;2022-12-29T05:37:00;9.73;;;5.83;;
483;SDS011;228;48.922;12.198;2022-12-29T05:39:27;9.00;;;6.23;;
483;SDS011;228;48.922;12.198;2022-12-29T05:41:58;10.87;;;6.80;;
483;SDS011;228;48.922;12.198;2022-12-29T05:44:37;8.23;;;5.70;;
483;SDS011;228;48.922;12.198;2022-12-29T05:47:12;9.47;;;5.70;;
483;SDS011;228;48.922;12.198;2022-12-29T05:49:47;7.13;;;5.30;;
483;SDS011;228;48.922;12.198;2022-12-29T05:52:38;8.47;;;6.10;;
483;SDS011;228;48.922;12.198;2022-12-29T05:55:05;9.00;;;6.10;;
483;SDS011;228;48.922;12.198;2022-12-29T05:57:33;7.60;;;5.60;;
483;SDS011;228;48.922;12.198;2022-12-29T06:00:12;9.47;;;5.67;;
483;SDS011;228;48.922;12.198;2022-12-29T06:02:43;8.67;;;5.37;;
483;SDS011;228;48.922;12.198;2022-12-29T06:05:09;8.70;;;6.10;;
483;SDS011;228;48.922;12.198;2022-12-29T06:07:36;9.63;;;5.93;;
483;SDS011;228;48.922;12.198;2022-12-29T06:10:03;7.53;;;5.40;;
483;SDS011;228;48.922;12.198;2022-12-29T06:12:56;7.50;;;5.43;;
483;SDS011;228;48.922;12.198;2022-12-29T06:15:23;8.50;;;5.83;;
483;SDS011;228;48.922;12.198;2022-12-29T06:17:50;10.93;;;6.37;;
483;SDS011;228;48.922;12.198;2022-12-29T06:20:16;8.10;;;5.90;;
483;SDS011;228;48.922;12.198;2022-12-29T06:22:42;7.43;;;5.60;;
483;SDS011;228;48.922;12.198;2022-12-29T06:25:08;10.70;;;5.43;;
483;SDS011;228;48.922;12.198;2022-12-29T06:27:35;11.47;;;6.37;;
483;SDS011;228;48.922;12.198;2022-12-29T06:30:01;10.33;;;6.13;;
483;SDS011;228;48.922;12.198;2022-12-29T06:32:29;8.47;;;5.67;;
483;SDS011;228;48.922;12.198;2022-12-29T06:35:00;8.57;;;5.70;;
483;SDS011;228;48.922;12.198;2022-12-29T06:37:27;8.33;;;6.13;;
483;SDS011;228;48.922;12.198;2022-12-29T06:39:53;9.80;;;6.27;;
483;SDS011;228;48.922;12.198;2022-12-29T06:42:20;10.43;;;5.63;;
483;SDS011;228;48.922;12.198;2022-12-29T06:45:10;9.37;;;6.30;;
483;SDS011;228;48.922;12.198;2022-12-29T06:47:36;9.80;;;5.63;;
483;SDS011;228;48.922;12.198;2022-12-29T06:50:02;7.33;;;5.47;;
483;SDS011;228;48.922;12.198;2022-12-29T06:52:29;8.30;;;5.60;;
483;SDS011;228;48.922;12.198;2022-12-29T06:54:55;9.63;;;5.70;;
483;SDS011;228;48.922;12.198;2022-12-29T06:57:21;12.90;;;7.23;;
483;SDS011;228;48.922;12.198;2022-12-29T06:59:47;14.17;;;7.90;;
483;SDS011;228;48.922;12.198;2022-12-29T07:02:13;9.50;;;6.47;;
483;SDS011;228;48.922;12.198;2022-12-29T07:04:44;10.20;;;5.80;;
483;SDS011;228;48.922;12.198;2022-12-29T07:07:10;9.17;;;6.27;;
483;SDS011;228;48.922;12.198;2022-12-29T07:09:36;8.50;;;5.37;;
483;SDS011;228;48.922;12.198;2022-12-29T07:12:02;7.47;;;5.60;;
483;SDS011;228;48.922;12.198;2022-12-29T07:14:28;8.20;;;5.50;;
483;SDS011;228;48.922;12.198;2022-12-29T07:16:54;6.83;;;5.40;;
483;SDS011;228;48.922;12.198;2022-12-29T07:19:20;6.90;;;5.23;;
483;SDS011;228;48.922;12.198;2022-12-29T07:21:47;9.00;;;5.60;;
483;SDS011;228;48.922;12.198;2022-12-29T07:24:12;7.20;;;5.00;;
483;SDS011;228;48.922;12.198;2022-12-29T07:26:38;8.97;;;5.47;;
483;SDS011;228;48.922;12.198;2022-12-29T07:29:04;9.47;;;5.23;;
483;SDS011;228;48.922;12.198;2022-12-29T07:31:30;6.13;;;4.67;;
483;SDS011;228;48.922;12.198;2022-12-29T07:33:57;8.03;;;5.60;;
483;SDS011;228;48.922;12.198;2022-12-29T07:36:23;8.03;;;5.50;;
483;SDS011;228;48.922;12.198;2022-12-29T07:38:49;9.03;;;5.40;;
483;SDS011;228;48.922;12.198;2022-12-29T07:41:15;10.80;;;5.77;;
483;SDS011;228;48.922;12.198;2022-12-29T07:43:41;6.63;;;5.17;;
483;SDS011;228;48.922;12.198;2022-12-29T07:46:33;6.67;;;5.23;;
483;SDS011;228;48.922;12.198;2022-12-29T07:48:59;8.80;;;6.20;;
483;SDS011;228;48.922;12.198;2022-12-29T07:51:25;7.80;;;5.77;;
483;SDS011;228;48.922;12.198;2022-12-29T07:53:51;7.73;;;5.70;;
483;SDS011;228;48.922;12.198;2022-12-29T07:56:17;9.97;;;6.17;;
483;SDS011;228;48.922;12.198;2022-12-29T07:58:43;13.40;;;8.37;;
483;SDS011;228;48.922;12.198;2022-12-29T08:01:09;8.53;;;5.87;;
483;SDS011;228;48.922;12.198;2022-12-29T08:03:35;8.07;;;5.97;;
483;SDS011;228;48.922;12.198;2022-12-29T08:06:01;9.00;;;6.10;;
483;SDS011;228;48.922;12.198;2022-12-29T08:08:28;8.20;;;5.67;;
483;SDS011;228;48.922;12.198;2022-12-29T08:10:54;9.17;;;5.73;;
483;SDS011;228;48.922;12.198;2022-12-29T08:13:20;8.23;;;5.77;;
483;SDS011;228;48.922;12.198;2022-12-29T08:15:45;6.50;;;5.33;;
483;SDS011;228;48.922;12.198;2022-12-29T08:18:11;9.53;;;5.90;;
483;SDS011;228;48.922;12.198;2022-12-29T08:20:37;7.80;;;6.00;;
483;SDS011;228;48.922;12.198;2022-12-29T08:23:03;9.27;;;5.90;;
483;SDS011;228;48.922;12.198;2022-12-29T08:25:29;8.53;;;6.03;;
483;SDS011;228;48.922;12.198;2022-12-29T08:27:55;7.77;;;5.10;;
483;SDS011;228;48.922;12.198;2022-12-29T08:30:21;8.50;;;5.27;;
483;SDS011;228;48.922;12.198;2022-12-29T08:32:47;6.07;;;4.77;;
483;SDS011;228;48.922;12.198;2022-12-29T08:35:14;8.20;;;4.97;;
483;SDS011;228;48.922;12.198;2022-12-29T08:37:40;6.93;;;4.70;;
483;SDS011;228;48.922;12.198;2022-12-29T08:40:06;7.10;;;4.90;;
483;SDS011;228;48.922;12.198;2022-12-29T08:42:33;7.77;;;5.73;;
483;SDS011;228;48.922;12.198;2022-12-29T08:44:59;7.20;;;4.87;;
483;SDS011;228;48.922;12.198;2022-12-29T08:47:25;10.20;;;6.30;;
483;SDS011;228;48.922;12.198;2022-12-29T08:49:52;6.60;;;5.57;;
483;SDS011;228;48.922;12.198;2022-12-29T08:52:18;6.47;;;5.07;;
483;SDS011;228;48.922;12.198;2022-12-29T08:54:44;5.20;;;4.07;;
483;SDS011;228;48.922;12.198;2022-12-29T08:57:10;4.50;;;3.77;;
483;SDS011;228;48.922;12.198;2022-12-29T08:59:50;5.80;;;3.97;;
483;SDS011;228;48.922;12.198;2022-12-29T09:02:16;5.43;;;3.97;;
483;SDS011;228;48.922;12.198;2022-12-29T09:04:42;6.27;;;4.50;;
483;SDS011;228;48.922;12.198;2022-12-29T09:07:08;5.70;;;4.00;;
483;SDS011;228;48.922;12.198;2022-12-29T09:09:34;6.83;;;4.60;;
483;SDS011;228;48.922;12.198;2022-12-29T09:12:00;6.97;;;4.30;;
483;SDS011;228;48.922;12.198;2022-12-29T09:14:26;5.13;;;4.20;;
483;SDS011;228;48.922;12.198;2022-12-29T09:16:53;5.53;;;4.03;;
483;SDS011;228;48.922;12.198;2022-12-29T09:19:38;5.10;;;4.03;;
483;SDS011;228;48.922;12.198;2022-12-29T09:22:04;7.70;;;4.80;;
483;SDS011;228;48.922;12.198;2022-12-29T09:24:30;5.50;;;3.87;;
483;SDS011;228;48.922;12.198;2022-12-29T09:26:56;5.50;;;4.17;;
483;SDS011;228;48.922;12.198;2022-12-29T09:29:22;6.13;;;4.43;;
483;SDS011;228;48.922;12.198;2022-12-29T09:31:48;8.00;;;4.50;;
483;SDS011;228;48.922;12.198;2022-12-29T09:34:14;7.13;;;4.63;;
483;SDS011;228;48.922;12.198;2022-12-29T09:36:40;7.10;;;4.20;;
483;SDS011;228;48.922;12.198;2022-12-29T09:39:07;5.63;;;4.30;;
483;SDS011;228;48.922;12.198;2022-12-29T09:47:12;6.33;;;4.27;;
483;SDS011;228;48.922;12.198;2022-12-29T09:52:22;6.97;;;5.10;;
483;SDS011;228;48.922;12.198;2022-12-29T09:55:03;6.40;;;4.60;;
483;SDS011;228;48.922;12.198;2022-12-29T09:58:02;7.03;;;4.67;;
483;SDS011;228;48.922;12.198;2022-12-29T10:00:43;7.00;;;4.97;;
483;SDS011;228;48.922;12.198;2022-12-29T10:03:22;6.57;;;4.63;;
483;SDS011;228;48.922;12.198;2022-12-29T10:20:12;6.47;;;4.87;;
483;SDS011;228;48.922;12.198;2022-12-29T10:23:45;6.77;;;4.43;;
483;SDS011;228;48.922;12.198;2022-12-29T10:26:17;6.20;;;4.27;;
483;SDS011;228;48.922;12.198;2022-12-29T10:28:53;7.20;;;5.00;;
483;SDS011;228;48.922;12.198;2022-12-29T10:31:32;5.43;;;4.33;;
483;SDS011;228;48.922;12.198;2022-12-29T10:34:29;6.70;;;4.77;;
483;SDS011;228;48.922;12.198;2022-12-29T10:37:30;6.40;;;4.90;;
483;SDS011;228;48.922;12.198;2022-12-29T10:40:51;6.10;;;4.50;;
483;SDS011;228;48.922;12.198;2022-12-29T10:45:52;8.13;;;5.17;;
483;SDS011;228;48.922;12.198;2022-12-29T10:48:24;6.37;;;4.30;;
483;SDS011;228;48.922;12.198;2022-12-29T10:50:55;6.60;;;4.63;;
483;SDS011;228;48.922;12.198;2022-12-29T10:53:36;5.97;;;5.23;;
483;SDS011;228;48.922;12.198;2022-12-29T11:02:06;6.27;;;4.80;;
483;SDS011;228;48.922;12.198;2022-12-29T11:07:43;6.77;;;4.53;;
483;SDS011;228;48.922;12.198;2022-12-29T11:10:17;4.80;;;4.00;;
483;SDS011;228;48.922;12.198;2022-12-29T11:13:30;5.90;;;3.97;;
483;SDS011;228;48.922;12.198;2022-12-29T11:16:11;5.00;;;3.70;;
483;SDS011;228;48.922;12.198;2022-12-29T11:18:38;5.63;;;4.43;;
483;SDS011;228;48.922;12.198;2022-12-29T11:24:20;4.27;;;3.87;;
483;SDS011;228;48.922;12.198;2022-12-29T11:27:00;4.43;;;3.40;;
483;SDS011;228;48.922;12.198;2022-12-29T11:29:42;4.57;;;3.80;;
483;SDS011;228;48.922;12.198;2022-12-29T11:32:19;4.73;;;3.60;;
483;SDS011;228;48.922;12.198;2022-12-29T11:34:47;4.83;;;3.90;;
483;SDS011;228;48.922;12.198;2022-12-29T11:42:34;3.97;;;3.40;;
483;SDS011;228;48.922;12.198;2022-12-29T11:45:29;4.00;;;3.13;;
483;SDS011;228;48.922;12.198;2022-12-29T11:50:39;4.57;;;3.57;;
483;SDS011;228;48.922;12.198;2022-12-29T11:55:50;4.27;;;3.30;;
483;SDS011;228;48.922;12.198;2022-12-29T11:58:38;5.10;;;3.10;;
483;SDS011;228;48.922;12.198;2022-12-29T12:01:06;4.00;;;3.40;;
483;SDS011;228;48.922;12.198;2022-12-29T12:07:00;4.47;;;3.63;;
483;SDS011;228;48.922;12.198;2022-12-29T12:12:44;5.80;;;4.00;;
483;SDS011;228;48.922;12.198;2022-12-29T12:15:19;4.57;;;4.10;;
483;SDS011;228;48.922;12.198;2022-12-29T12:20:45;4.25;;;3.70;;
483;SDS011;228;48.922;12.198;2022-12-29T12:26:19;5.00;;;3.92;;
483;SDS011;228;48.922;12.198;2022-12-29T12:28:57;4.72;;;4.07;;
483;SDS011;228;48.922;12.198;2022-12-29T12:31:45;4.07;;;3.67;;
483;SDS011;228;48.922;12.198;2022-12-29T12:34:27;4.07;;;3.35;;
483;SDS011;228;48.922;12.198;2022-12-29T12:43:30;3.67;;;3.17;;
483;SDS011;228;48.922;12.198;2022-12-29T12:46:18;3.75;;;3.30;;
483;SDS011;228;48.922;12.198;2022-12-29T12:49:44;3.65;;;3.28;;
483;SDS011;228;48.922;12.198;2022-12-29T13:04:08;3.17;;;2.20;;
483;SDS011;228;48.922;12.198;2022-12-29T13:16:37;2.92;;;2.63;;
483;SDS011;228;48.922;12.198;2022-12-29T13:22:41;6.47;;;3.40;;
483;SDS011;228;48.922;12.198;2022-12-29T13:28:25;4.40;;;3.40;;
483;SDS011;228;48.922;12.198;2022-12-29T13:34:45;6.40;;;4.00;;
483;SDS011;228;48.922;12.198;2022-12-29T13:37:14;5.23;;;3.67;;
483;SDS011;228;48.922;12.198;2022-12-29T13:39:52;4.47;;;3.03;;
483;SDS011;228;48.922;12.198;2022-12-29T13:42:42;3.13;;;1.60;;
483;SDS011;228;48.922;12.198;2022-12-29T13:45:10;2.53;;;1.20;;
483;SDS011;228;48.922;12.198;2022-12-29T13:47:55;1.70;;;1.43;;
483;SDS011;228;48.922;12.198;2022-12-29T13:50:28;1.70;;;1.50;;
483;SDS011;228;48.922;12.198;2022-12-29T13:56:04;2.10;;;1.37;;
483;SDS011;228;48.922;12.198;2022-12-29T13:58:57;1.40;;;1.30;;
483;SDS011;228;48.922;12.198;2022-12-29T14:07:47;1.53;;;1.40;;
483;SDS011;228;48.922;12.198;2022-12-29T14:10:26;1.20;;;1.10;;
483;SDS011;228;48.922;12.198;2022-12-29T14:13:05;2.77;;;1.60;;
483;SDS011;228;48.922;12.198;2022-12-29T14:15:41;1.47;;;1.37;;
483;SDS011;228;48.922;12.198;2022-12-29T14:23:27;1.57;;;1.30;;
483;SDS011;228;48.922;12.198;2022-12-29T14:28:32;1.57;;;1.20;;
483;SDS011;228;48.922;12.198;2022-12-29T14:34:14;7.27;;;1.30;;
483;SDS011;228;48.922;12.198;2022-12-29T14:36:36;1.47;;;1.17;;
483;SDS011;228;48.922;12.198;2022-12-29T14:39:39;1.27;;;1.00;;
483;SDS011;228;48.922;12.198;2022-12-29T14:44:31;2.63;;;1.23;;
483;SDS011;228;48.922;12.198;2022-12-29T14:46:59;2.57;;;1.40;;
483;SDS011;228;48.922;12.198;2022-12-29T14:49:32;1.00;;;1.00;;
483;SDS011;228;48.922;12.198;2022-12-29T14:52:07;1.20;;;1.10;;
483;SDS011;228;48.922;12.198;2022-12-29T14:54:43;1.00;;;1.00;;
483;SDS011;228;48.922;12.198;2022-12-29T14:57:27;1.57;;;1.47;;
483;SDS011;228;48.922;12.198;2022-12-29T15:00:04;2.40;;;1.47;;
483;SDS011;228;48.922;12.198;2022-12-29T15:02:49;3.43;;;1.50;;
483;SDS011;228;48.922;12.198;2022-12-29T15:05:50;1.27;;;1.20;;
483;SDS011;228;48.922;12.198;2022-12-29T15:08:28;1.40;;;1.10;;
483;SDS011;228;48.922;12.198;2022-12-29T15:11:15;2.07;;;1.00;;
483;SDS011;228;48.922;12.198;2022-12-29T15:13:45;1.67;;;1.33;;
483;SDS011;228;48.922;12.198;2022-12-29T15:18:56;1.93;;;1.53;;
483;SDS011;228;48.922;12.198;2022-12-29T15:21:29;2.23;;;1.17;;
483;SDS011;228;48.922;12.198;2022-12-29T15:23:59;2.63;;;1.20;;
483;SDS011;228;48.922;12.198;2022-12-29T15:26:36;1.60;;;1.10;;
483;SDS011;228;48.922;12.198;2022-12-29T15:32:38;3.20;;;1.37;;
483;SDS011;228;48.922;12.198;2022-12-29T15:35:22;1.07;;;1.00;;
483;SDS011;228;48.922;12.198;2022-12-29T15:38:00;1.37;;;1.27;;
483;SDS011;228;48.922;12.198;2022-12-29T15:40:38;1.30;;;1.20;;
483;SDS011;228;48.922;12.198;2022-12-29T15:43:18;2.03;;;1.50;;
483;SDS011;228;48.922;12.198;2022-12-29T15:46:07;1.50;;;1.17;;
483;SDS011;228;48.922;12.198;2022-12-29T15:48:36;4.43;;;1.20;;
483;SDS011;228;48.922;12.198;2022-12-29T15:51:09;1.27;;;1.17;;
483;SDS011;228;48.922;12.198;2022-12-29T15:53:48;3.40;;;1.30;;
483;SDS011;228;48.922;12.198;2022-12-29T15:56:16;1.13;;;1.00;;
483;SDS011;228;48.922;12.198;2022-12-29T15:58:47;1.50;;;1.27;;
483;SDS011;228;48.922;12.198;2022-12-29T16:01:17;4.37;;;3.00;;
483;SDS011;228;48.922;12.198;2022-12-29T16:03:55;4.83;;;4.33;;
483;SDS011;228;48.922;12.198;2022-12-29T16:06:31;2.03;;;1.70;;
483;SDS011;228;48.922;12.198;2022-12-29T16:09:17;7.20;;;5.23;;
483;SDS011;228;48.922;12.198;2022-12-29T16:11:55;3.10;;;2.73;;
483;SDS011;228;48.922;12.198;2022-12-29T16:14:30;1.43;;;1.30;;
483;SDS011;228;48.922;12.198;2022-12-29T16:17:06;1.67;;;1.20;;
483;SDS011;228;48.922;12.198;2022-12-29T16:19:38;1.47;;;1.30;;
483;SDS011;228;48.922;12.198;2022-12-29T16:22:11;2.63;;;1.60;;
483;SDS011;228;48.922;12.198;2022-12-29T16:24:49;1.73;;;1.47;;
483;SDS011;228;48.922;12.198;2022-12-29T16:30:21;1.57;;;1.40;;
483;SDS011;228;48.922;12.198;2022-12-29T16:32:51;2.10;;;1.80;;
483;SDS011;228;48.922;12.198;2022-12-29T16:40:56;2.97;;;1.57;;
483;SDS011;228;48.922;12.198;2022-12-29T16:43:28;1.87;;;1.47;;
483;SDS011;228;48.922;12.198;2022-12-29T16:51:02;2.90;;;1.90;;
483;SDS011;228;48.922;12.198;2022-12-29T16:53:39;2.67;;;2.03;;
483;SDS011;228;48.922;12.198;2022-12-29T16:56:17;6.63;;;3.80;;
483;SDS011;228;48.922;12.198;2022-12-29T16:58:48;2.23;;;1.60;;
483;SDS011;228;48.922;12.198;2022-12-29T17:01:17;2.17;;;1.50;;
483;SDS011;228;48.922;12.198;2022-12-29T17:03:53;1.50;;;1.33;;
483;SDS011;228;48.922;12.198;2022-12-29T17:06:24;2.27;;;1.63;;
483;SDS011;228;48.922;12.198;2022-12-29T17:08:50;2.47;;;1.50;;
483;SDS011;228;48.922;12.198;2022-12-29T17:16:52;2.37;;;1.90;;
483;SDS011;228;48.922;12.198;2022-12-29T17:19:19;3.77;;;2.20;;
483;SDS011;228;48.922;12.198;2022-12-29T17:21:56;3.23;;;2.33;;
483;SDS011;228;48.922;12.198;2022-12-29T17:24:22;4.23;;;2.97;;
483;SDS011;228;48.922;12.198;2022-12-29T17:26:52;12.47;;;6.57;;
483;SDS011;228;48.922;12.198;2022-12-29T17:32:03;18.57;;;10.83;;
483;SDS011;228;48.922;12.198;2022-12-29T17:34:34;35.07;;;20.07;;
483;SDS011;228;48.922;12.198;2022-12-29T17:37:00;24.90;;;18.00;;
483;SDS011;228;48.922;12.198;2022-12-29T17:39:26;19.33;;;14.70;;
483;SDS011;228;48.922;12.198;2022-12-29T17:41:53;8.70;;;6.53;;
483;SDS011;228;48.922;12.198;2022-12-29T17:44:19;4.67;;;4.17;;
483;SDS011;228;48.922;12.198;2022-12-29T17:46:46;6.03;;;4.40;;
483;SDS011;228;48.922;12.198;2022-12-29T17:49:14;5.53;;;5.00;;
483;SDS011;228;48.922;12.198;2022-12-29T17:51:42;3.73;;;3.17;;
483;SDS011;228;48.922;12.198;2022-12-29T17:54:45;4.47;;;2.77;;
483;SDS011;228;48.922;12.198;2022-12-29T17:57:08;3.90;;;2.63;;
483;SDS011;228;48.922;12.198;2022-12-29T17:59:38;4.13;;;3.10;;
483;SDS011;228;48.922;12.198;2022-12-29T18:02:08;6.07;;;4.20;;
483;SDS011;228;48.922;12.198;2022-12-29T18:04:53;6.83;;;4.37;;
483;SDS011;228;48.922;12.198;2022-12-29T18:07:21;8.30;;;5.90;;
483;SDS011;228;48.922;12.198;2022-12-29T18:09:47;9.87;;;6.10;;
483;SDS011;228;48.922;12.198;2022-12-29T18:12:28;6.30;;;5.03;;
483;SDS011;228;48.922;12.198;2022-12-29T18:14:59;3.67;;;2.60;;
483;SDS011;228;48.922;12.198;2022-12-29T18:17:25;3.17;;;2.10;;
483;SDS011;228;48.922;12.198;2022-12-29T18:19:51;3.33;;;2.40;;
483;SDS011;228;48.922;12.198;2022-12-29T18:22:19;4.80;;;3.63;;
483;SDS011;228;48.922;12.198;2022-12-29T18:24:47;8.17;;;5.33;;
483;SDS011;228;48.922;12.198;2022-12-29T18:27:13;9.03;;;5.63;;
483;SDS011;228;48.922;12.198;2022-12-29T18:29:40;6.63;;;4.90;;
483;SDS011;228;48.922;12.198;2022-12-29T18:32:13;7.67;;;4.90;;
483;SDS011;228;48.922;12.198;2022-12-29T18:34:40;9.10;;;5.13;;
483;SDS011;228;48.922;12.198;2022-12-29T18:37:08;9.30;;;5.43;;
483;SDS011;228;48.922;12.198;2022-12-29T18:39:35;36.47;;;14.17;;
483;SDS011;228;48.922;12.198;2022-12-29T18:42:02;26.50;;;10.73;;
483;SDS011;228;48.922;12.198;2022-12-29T18:44:29;12.07;;;7.50;;
483;SDS011;228;48.922;12.198;2022-12-29T18:46:55;13.27;;;7.93;;
483;SDS011;228;48.922;12.198;2022-12-29T18:49:21;9.13;;;5.80;;
483;SDS011;228;48.922;12.198;2022-12-29T18:51:48;6.57;;;4.90;;
483;SDS011;228;48.922;12.198;2022-12-29T18:54:25;16.00;;;6.40;;
483;SDS011;228;48.922;12.198;2022-12-29T18:56:53;9.40;;;6.13;;